createdAt,value
2023-04-25T00:00:34.919Z,5.17
2023-04-25T00:03:39.382Z,4.73
2023-04-25T00:06:43.117Z,5.30
2023-04-25T00:09:47.595Z,4.93
2023-04-25T00:12:51.153Z,5.50
2023-04-25T00:15:57.262Z,4.87
2023-04-25T00:19:00.975Z,4.73
2023-04-25T00:22:04.821Z,4.50
2023-04-25T00:25:09.499Z,5.37
2023-04-25T00:28:13.362Z,4.90
2023-04-25T00:31:18.306Z,5.40
2023-04-25T00:34:22.396Z,5.00
2023-04-25T00:37:26.402Z,5.97
2023-04-25T00:40:30.668Z,5.00
2023-04-25T00:43:35.970Z,5.43
2023-04-25T00:46:41.913Z,4.90
2023-04-25T00:49:45.538Z,4.97
2023-04-25T00:52:49.322Z,4.63
2023-04-25T00:55:54.495Z,4.73
2023-04-25T00:58:58.876Z,4.87
2023-04-25T01:02:03.874Z,4.90
2023-04-25T01:05:07.897Z,3.90
2023-04-25T01:08:11.903Z,5.70
2023-04-25T01:11:15.788Z,4.13
2023-04-25T01:14:19.474Z,4.97
2023-04-25T01:17:24.914Z,4.27
2023-04-25T01:20:29.392Z,3.73
2023-04-25T01:23:35.690Z,4.77
2023-04-25T01:26:41.126Z,4.43
2023-04-25T01:29:45.019Z,4.97
2023-04-25T01:32:50.463Z,5.40
2023-04-25T01:35:54.500Z,4.43
2023-04-25T01:39:00.004Z,4.13
2023-04-25T01:42:03.782Z,5.07
2023-04-25T01:45:09.240Z,4.60
2023-04-25T01:48:15.399Z,5.00
2023-04-25T01:51:19.708Z,4.60
2023-04-25T01:54:24.689Z,4.37
2023-04-25T01:57:28.298Z,4.70
2023-04-25T02:00:31.998Z,4.50
2023-04-25T02:03:37.465Z,3.97
2023-04-25T02:06:41.096Z,4.23
2023-04-25T02:09:46.061Z,4.33
2023-04-25T02:12:49.556Z,4.40
2023-04-25T02:15:53.178Z,3.70
2023-04-25T02:18:56.748Z,4.47
2023-04-25T02:22:00.571Z,4.43
2023-04-25T02:25:06.731Z,3.90
2023-04-25T02:28:10.255Z,4.27
2023-04-25T02:31:13.826Z,5.37
2023-04-25T02:34:17.343Z,3.83
2023-04-25T02:37:20.886Z,4.47
2023-04-25T02:40:25.824Z,4.33
2023-04-25T02:43:29.454Z,3.90
2023-04-25T02:49:42.667Z,4.57
2023-04-25T02:52:46.267Z,4.53
2023-04-25T02:55:51.074Z,4.63
2023-04-25T02:58:54.871Z,4.63
2023-04-25T03:01:58.538Z,3.80
2023-04-25T03:05:10.506Z,5.03
2023-04-25T03:08:14.056Z,4.43
2023-04-25T03:11:18.342Z,4.53
2023-04-25T03:14:21.964Z,3.73
2023-04-25T03:17:25.596Z,4.40
2023-04-25T03:20:30.634Z,4.13
2023-04-25T03:23:34.781Z,3.87
2023-04-25T03:26:38.438Z,3.20
2023-04-25T03:29:42.627Z,4.17
2023-04-25T03:32:46.280Z,4.17
2023-04-25T03:35:52.061Z,4.00
2023-04-25T03:38:55.849Z,4.13
2023-04-25T03:41:59.411Z,3.80
2023-04-25T03:45:03.008Z,4.00
2023-04-25T03:48:07.259Z,4.23
2023-04-25T03:51:12.368Z,4.00
2023-04-25T03:54:16.035Z,3.53
2023-04-25T03:57:19.569Z,3.90
2023-04-25T04:00:23.313Z,3.80
2023-04-25T04:03:27.080Z,3.57
2023-04-25T04:06:32.670Z,4.33
2023-04-25T04:09:36.227Z,3.10
2023-04-25T04:12:40.543Z,3.57
2023-04-25T04:15:44.342Z,3.90
2023-04-25T04:18:48.611Z,3.57
2023-04-25T04:21:53.657Z,3.93
2023-04-25T04:24:57.841Z,3.37
2023-04-25T04:28:02.008Z,3.43
2023-04-25T04:31:05.985Z,3.47
2023-04-25T04:34:10.604Z,2.83
2023-04-25T04:37:15.850Z,3.97
2023-04-25T04:40:20.279Z,3.90
2023-04-25T04:43:24.018Z,3.43
2023-04-25T04:46:29.131Z,4.20
2023-04-25T04:49:32.906Z,3.20
2023-04-25T04:52:38.428Z,3.53
2023-04-25T04:55:42.665Z,3.37
2023-04-25T04:58:46.272Z,3.33
2023-04-25T05:01:49.894Z,2.67
2023-04-25T05:04:53.937Z,2.90
2023-04-25T05:08:01.669Z,2.80
2023-04-25T05:11:05.701Z,2.47
2023-04-25T05:14:09.292Z,3.07
2023-04-25T05:17:13.178Z,2.57
2023-04-25T05:20:16.799Z,2.73
2023-04-25T05:23:21.756Z,2.97
2023-04-25T05:26:25.576Z,2.80
2023-04-25T05:29:29.072Z,2.30
2023-04-25T05:32:32.865Z,3.10
2023-04-25T05:35:36.685Z,2.80
2023-04-25T05:38:41.668Z,3.23
2023-04-25T05:41:45.373Z,3.63
2023-04-25T05:44:49.664Z,3.33
2023-04-25T05:47:53.478Z,2.83
2023-04-25T05:50:57.855Z,3.20
2023-04-25T05:54:02.948Z,2.90
2023-04-25T05:57:06.829Z,3.23
2023-04-25T06:00:12.084Z,2.80
2023-04-25T06:03:19.611Z,2.53
2023-04-25T06:06:24.858Z,2.50
2023-04-25T06:09:29.888Z,3.00
2023-04-25T06:12:33.468Z,3.63
2023-04-25T06:15:38.390Z,2.80
2023-04-25T06:18:42.003Z,3.20
2023-04-25T06:21:46.562Z,2.70
2023-04-25T06:24:51.577Z,2.57
2023-04-25T06:27:55.409Z,2.90
2023-04-25T06:30:59.119Z,2.47
2023-04-25T06:34:03.522Z,2.70
2023-04-25T06:37:07.254Z,2.13
2023-04-25T06:40:13.132Z,2.17
2023-04-25T06:43:16.752Z,2.40
2023-04-25T06:46:20.741Z,1.80
2023-04-25T06:49:24.501Z,2.40
2023-04-25T06:52:28.349Z,3.20
2023-04-25T06:55:33.428Z,2.03
2023-04-25T06:58:37.132Z,1.83
2023-04-25T07:01:41.329Z,1.80
2023-04-25T07:04:46.264Z,2.10
2023-04-25T07:07:49.875Z,2.37
2023-04-25T07:10:54.862Z,1.40
2023-04-25T07:13:58.536Z,1.50
2023-04-25T07:17:02.737Z,2.00
2023-04-25T07:20:08.914Z,2.07
2023-04-25T07:23:12.459Z,2.30
2023-04-25T07:26:17.597Z,2.30
2023-04-25T07:29:21.308Z,3.00
2023-04-25T07:32:25.022Z,2.33
2023-04-25T07:35:28.893Z,2.57
2023-04-25T07:38:32.437Z,2.10
2023-04-25T07:41:37.533Z,3.53
2023-04-25T07:44:41.388Z,2.00
2023-04-25T07:47:45.052Z,2.13
2023-04-25T07:50:48.769Z,2.40
2023-04-25T07:53:52.469Z,1.80
2023-04-25T07:56:57.486Z,1.73
2023-04-25T08:00:01.995Z,1.70
2023-04-25T08:03:10.533Z,1.87
2023-04-25T08:06:14.539Z,1.73
2023-04-25T08:09:18.509Z,1.80
2023-04-25T08:12:23.606Z,1.87
2023-04-25T08:15:27.508Z,1.53
2023-04-25T08:18:31.905Z,1.57
2023-04-25T08:21:35.676Z,2.83
2023-04-25T08:24:39.711Z,1.83
2023-04-25T08:27:45.394Z,2.73
2023-04-25T08:30:48.996Z,1.97
2023-04-25T08:33:53.065Z,2.03
2023-04-25T08:36:57.136Z,1.80
2023-04-25T08:40:00.879Z,1.40
2023-04-25T08:43:12.391Z,1.83
2023-04-25T08:46:20.595Z,1.10
2023-04-25T08:49:24.774Z,1.33
2023-04-25T08:52:37.522Z,2.03
2023-04-25T08:55:44.669Z,1.77
2023-04-25T08:58:51.773Z,1.10
2023-04-25T09:01:55.638Z,1.20
2023-04-25T09:05:00.131Z,1.67
2023-04-25T09:08:03.937Z,1.63
2023-04-25T09:11:07.506Z,1.50
2023-04-25T09:14:17.898Z,1.90
2023-04-25T09:17:21.522Z,1.23
2023-04-25T09:20:25.966Z,1.40
2023-04-25T09:23:29.593Z,1.33
2023-04-25T09:26:34.724Z,1.17
2023-04-25T09:29:41.861Z,1.50
2023-04-25T09:32:46.395Z,1.90
2023-04-25T09:35:53.976Z,1.10
2023-04-25T09:38:58.177Z,1.53
2023-04-25T09:42:02.536Z,1.30
2023-04-25T09:45:08.970Z,1.27
2023-04-25T09:48:12.601Z,1.47
2023-04-25T09:51:16.690Z,1.03
2023-04-25T09:54:20.364Z,1.47
2023-04-25T09:57:27.122Z,1.63
2023-04-25T10:00:34.298Z,1.20
2023-04-25T10:03:41.284Z,1.60
2023-04-25T10:06:48.312Z,1.70
2023-04-25T10:09:57.348Z,1.40
2023-04-25T10:13:02.430Z,1.53
2023-04-25T10:16:08.072Z,1.00
2023-04-25T10:19:12.556Z,1.30
2023-04-25T10:22:25.530Z,0.87
2023-04-25T10:25:29.540Z,1.47
2023-04-25T10:28:59.949Z,1.20
2023-04-25T10:32:05.643Z,1.53
2023-04-25T10:35:18.139Z,1.47
2023-04-25T10:38:21.914Z,1.40
2023-04-25T10:41:25.507Z,0.90
2023-04-25T10:44:30.505Z,1.37
2023-04-25T10:47:48.286Z,1.20
2023-04-25T10:50:51.901Z,1.30
2023-04-25T10:54:04.515Z,1.70
2023-04-25T10:57:08.145Z,1.17
2023-04-25T11:00:16.542Z,1.20
2023-04-25T11:03:26.848Z,1.37
2023-04-25T11:06:49.246Z,1.27
2023-04-25T11:09:54.253Z,1.23
2023-04-25T11:12:58.488Z,1.30
2023-04-25T11:16:12.138Z,1.17
2023-04-25T11:19:18.298Z,1.23
2023-04-25T11:22:25.084Z,1.40
2023-04-25T11:25:29.326Z,1.03
2023-04-25T11:28:32.941Z,1.27
2023-04-25T11:31:36.836Z,0.90
2023-04-25T11:34:44.930Z,1.23
2023-04-25T11:37:49.092Z,1.50
2023-04-25T11:40:53.769Z,1.30
2023-04-25T11:43:57.621Z,1.53
2023-04-25T11:47:01.206Z,1.00
2023-04-25T11:50:09.893Z,1.47
2023-04-25T11:53:14.091Z,1.57
2023-04-25T11:56:18.000Z,1.10
2023-04-25T11:59:27.407Z,1.13
2023-04-25T12:02:31.313Z,1.00
2023-04-25T12:05:38.881Z,1.27
2023-04-25T12:09:05.629Z,1.10
2023-04-25T12:12:12.804Z,1.40
2023-04-25T12:15:29.878Z,1.30
2023-04-25T12:18:33.665Z,0.90
2023-04-25T12:21:46.972Z,1.10
2023-04-25T12:25:00.750Z,1.30
2023-04-25T12:28:16.830Z,1.03
2023-04-25T12:31:20.756Z,1.20
2023-04-25T12:34:26.433Z,0.80
2023-04-25T12:37:32.122Z,1.13
2023-04-25T12:40:35.873Z,1.37
2023-04-25T12:43:39.604Z,1.77
2023-04-25T12:46:43.579Z,1.10
2023-04-25T12:49:47.216Z,1.10
2023-04-25T12:52:52.145Z,0.93
2023-04-25T12:59:05.141Z,1.83
2023-04-25T13:02:08.804Z,1.40
2023-04-25T13:05:12.469Z,0.97
2023-04-25T13:08:17.510Z,1.40
2023-04-25T13:11:21.758Z,1.47
2023-04-25T13:14:25.380Z,1.17
2023-04-25T13:17:29.114Z,1.20
2023-04-25T13:20:32.828Z,1.20
2023-04-25T13:23:37.973Z,1.20
2023-04-25T13:26:41.568Z,1.17
2023-04-25T13:29:45.154Z,1.60
2023-04-25T13:32:48.945Z,1.00
2023-04-25T13:35:54.978Z,1.00
2023-04-25T13:38:59.985Z,1.20
2023-04-25T13:42:04.158Z,1.00
2023-04-25T13:45:09.556Z,1.17
2023-04-25T13:48:13.247Z,0.80
2023-04-25T13:51:18.587Z,0.97
2023-04-25T13:54:24.161Z,1.40
2023-04-25T13:57:27.810Z,2.40
2023-04-25T14:00:32.468Z,1.03
2023-04-25T14:03:36.425Z,1.50
2023-04-25T14:06:40.215Z,0.80
2023-04-25T14:09:45.303Z,1.00
2023-04-25T14:12:49.079Z,1.00
2023-04-25T14:15:52.754Z,1.20
2023-04-25T14:18:56.593Z,1.30
2023-04-25T14:22:00.204Z,0.90
2023-04-25T14:25:06.441Z,1.10
2023-04-25T14:28:10.096Z,1.20
2023-04-25T14:31:13.985Z,0.80
2023-04-25T14:34:17.632Z,1.80
2023-04-25T14:37:21.727Z,1.30
2023-04-25T14:40:27.635Z,1.20
2023-04-25T14:43:31.341Z,1.10
2023-04-25T14:46:35.288Z,1.23
2023-04-25T14:49:39.127Z,1.30
2023-04-25T14:52:42.748Z,1.73
2023-04-25T14:55:47.989Z,1.00
2023-04-25T14:58:52.563Z,0.97
2023-04-25T15:01:58.331Z,0.80
2023-04-25T15:05:04.496Z,0.83
2023-04-25T15:08:08.569Z,0.90
2023-04-25T15:11:13.589Z,1.43
2023-04-25T15:14:17.211Z,1.73
2023-04-25T15:17:20.871Z,0.90
2023-04-25T15:20:25.117Z,1.63
2023-04-25T15:23:29.837Z,1.30
2023-04-25T15:26:35.059Z,1.30
2023-04-25T15:29:38.614Z,1.17
2023-04-25T15:32:42.443Z,1.13
2023-04-25T15:35:46.763Z,1.30
2023-04-25T15:38:50.866Z,1.27
2023-04-25T15:41:56.275Z,1.57
2023-04-25T15:44:59.894Z,1.60
2023-04-25T15:48:03.547Z,1.90
2023-04-25T15:51:08.302Z,1.37
2023-04-25T15:54:11.963Z,1.90
2023-04-25T15:57:17.088Z,1.67
2023-04-25T16:00:22.566Z,2.10
2023-04-25T16:03:26.549Z,1.80
2023-04-25T16:06:30.311Z,1.60
2023-04-25T16:09:34.538Z,1.97
2023-04-25T16:12:39.906Z,1.87
2023-04-25T16:15:43.775Z,1.40
2023-04-25T16:18:47.343Z,2.37
2023-04-25T16:21:51.836Z,1.93
2023-04-25T16:24:55.510Z,1.80
2023-04-25T16:28:00.638Z,2.27
2023-04-25T16:31:04.421Z,2.37
2023-04-25T16:34:08.825Z,2.17
2023-04-25T16:37:12.430Z,2.27
2023-04-25T16:40:16.073Z,2.00
2023-04-25T16:43:21.479Z,1.60
2023-04-25T16:46:25.269Z,1.90
2023-04-25T16:49:29.238Z,2.13
2023-04-25T16:52:33.125Z,1.40
2023-04-25T16:55:36.840Z,1.30
2023-04-25T16:58:41.963Z,1.77
2023-04-25T17:01:45.721Z,1.77
2023-04-25T17:04:49.395Z,2.10
2023-04-25T17:07:53.059Z,1.70
2023-04-25T17:10:57.011Z,1.27
2023-04-25T17:14:02.065Z,1.63
2023-04-25T17:17:05.983Z,1.43
2023-04-25T17:20:11.119Z,1.30
2023-04-25T17:23:14.921Z,1.30
2023-04-25T17:26:18.477Z,2.23
2023-04-25T17:29:23.972Z,1.47
2023-04-25T17:32:28.518Z,1.57
2023-04-25T17:35:34.068Z,1.30
2023-04-25T17:38:39.041Z,1.40
2023-04-25T17:41:42.730Z,1.40
2023-04-25T17:44:47.789Z,1.10
2023-04-25T17:47:51.421Z,1.13
2023-04-25T17:50:54.980Z,1.57
2023-04-25T17:53:58.778Z,1.90
2023-04-25T17:57:02.649Z,1.33
2023-04-25T18:00:11.842Z,1.10
2023-04-25T18:03:16.444Z,1.60
2023-04-25T18:06:20.393Z,1.77
2023-04-25T18:09:24.886Z,1.53
2023-04-25T18:12:28.539Z,1.50
2023-04-25T18:15:34.430Z,1.27
2023-04-25T18:18:38.173Z,1.50
2023-04-25T18:21:42.834Z,1.50
2023-04-25T18:24:46.440Z,1.60
2023-04-25T18:27:50.967Z,2.57
2023-04-25T18:30:56.828Z,1.87
2023-04-25T18:34:00.826Z,1.60
2023-04-25T18:37:04.473Z,1.40
2023-04-25T18:40:14.126Z,1.37
2023-04-25T18:43:18.042Z,1.20
2023-04-25T18:46:23.734Z,1.30
2023-04-25T18:49:27.732Z,1.10
2023-04-25T18:52:31.553Z,1.37
2023-04-25T18:55:35.181Z,1.50
2023-04-25T18:58:38.986Z,1.40
2023-04-25T19:01:44.085Z,1.37
2023-04-25T19:04:47.969Z,1.20
2023-04-25T19:07:51.989Z,1.30
2023-04-25T19:10:56.771Z,2.33
2023-04-25T19:14:01.223Z,1.43
2023-04-25T19:17:06.268Z,1.37
2023-04-25T19:20:11.388Z,1.63
2023-04-25T19:23:14.962Z,1.33
2023-04-25T19:26:18.962Z,1.67
2023-04-25T19:29:22.658Z,1.60
2023-04-25T19:32:28.604Z,1.50
2023-04-25T19:35:33.535Z,2.57
2023-04-25T19:38:37.509Z,1.57
2023-04-25T19:41:41.291Z,1.93
2023-04-25T19:44:44.917Z,1.90
2023-04-25T19:47:49.868Z,1.80
2023-04-25T19:50:53.605Z,2.00
2023-04-25T19:53:57.354Z,1.60
2023-04-25T19:57:01.816Z,1.80
2023-04-25T20:00:10.832Z,2.30
2023-04-25T20:03:16.573Z,2.57
2023-04-25T20:06:20.384Z,2.67
2023-04-25T20:09:24.762Z,1.73
2023-04-25T20:12:28.710Z,2.30
2023-04-25T20:15:32.928Z,2.57
2023-04-25T20:18:37.921Z,3.10
2023-04-25T20:21:41.669Z,1.90
2023-04-25T20:24:45.354Z,2.10
2023-04-25T20:27:49.208Z,1.87
2023-04-25T20:30:52.827Z,2.30
2023-04-25T20:33:59.189Z,2.40
2023-04-25T20:37:02.937Z,2.17
2023-04-25T20:40:09.872Z,1.80
2023-04-25T20:43:14.347Z,2.90
2023-04-25T20:46:18.202Z,2.50
2023-04-25T20:49:23.360Z,1.70
2023-04-25T20:52:27.768Z,2.27
2023-04-25T20:55:31.575Z,2.03
2023-04-25T20:58:35.288Z,2.27
2023-04-25T21:01:39.125Z,1.90
2023-04-25T21:04:44.727Z,2.73
2023-04-25T21:07:48.377Z,2.17
2023-04-25T21:10:53.373Z,2.63
2023-04-25T21:13:56.995Z,2.87
2023-04-25T21:17:00.543Z,2.67
2023-04-25T21:20:10.296Z,2.07
2023-04-25T21:23:13.989Z,2.23
2023-04-25T21:26:17.556Z,2.20
2023-04-25T21:29:21.221Z,2.33
2023-04-25T21:32:25.175Z,3.37
2023-04-25T21:35:30.237Z,3.77
2023-04-25T21:38:34.062Z,2.63
2023-04-25T21:41:38.610Z,2.83
2023-04-25T21:44:42.181Z,2.83
2023-04-25T21:47:47.236Z,2.33
2023-04-25T21:50:52.269Z,3.00
2023-04-25T21:53:56.005Z,2.63
2023-04-25T21:56:59.527Z,3.07
2023-04-25T22:00:04.453Z,2.97
2023-04-25T22:03:08.142Z,2.80
2023-04-25T22:06:13.249Z,2.73
2023-04-25T22:09:17.767Z,3.23
2023-04-25T22:12:21.519Z,3.17
2023-04-25T22:15:25.231Z,2.77
2023-04-25T22:18:29.140Z,3.27
2023-04-25T22:21:34.065Z,2.93
2023-04-25T22:24:37.696Z,2.97
2023-04-25T22:27:43.642Z,3.53
2023-04-25T22:30:47.223Z,2.73
2023-04-25T22:33:51.445Z,3.00
2023-04-25T22:36:56.480Z,3.47
2023-04-25T22:40:00.219Z,3.13
2023-04-25T22:43:03.918Z,3.30
2023-04-25T22:46:08.240Z,3.83
2023-04-25T22:49:12.115Z,3.30
2023-04-25T22:52:17.222Z,3.07
2023-04-25T22:55:22.270Z,3.90
2023-04-25T22:58:26.261Z,4.00
2023-04-25T23:01:30.117Z,4.07
2023-04-25T23:04:34.550Z,4.10
2023-04-25T23:07:40.573Z,4.10
2023-04-25T23:10:44.221Z,4.60
2023-04-25T23:13:47.816Z,3.40
2023-04-25T23:16:51.404Z,4.10
2023-04-25T23:19:54.972Z,4.03
2023-04-25T23:23:00.359Z,3.67
2023-04-25T23:26:09.393Z,4.40
2023-04-25T23:29:12.933Z,4.17
2023-04-25T23:32:16.582Z,3.80
2023-04-25T23:35:20.465Z,4.07
2023-04-25T23:38:25.569Z,4.63
2023-04-25T23:41:29.108Z,4.53
2023-04-25T23:44:32.669Z,3.50
2023-04-25T23:47:37.550Z,3.37
2023-04-25T23:50:42.071Z,3.73
2023-04-25T23:53:47.202Z,4.03
2023-04-25T23:56:50.758Z,3.57
2023-04-25T23:59:54.609Z,3.50
